Hauptseite
METAR-TAF:

METAR-TAF

Flughäfen :

Flughafen Biarritz

Biarritz, Frankreich

Breite: 43-28N, Länge: 001-32W, Höhe: 75 m

Beobachtung

Neuester Wetterbericht von vor 36 Minuten, um 08:30 UTC
Wind 4 kt aus Süd, variierte zwischen Südost und Süd/Südwest
Temperatur 12°C
Luftfeuchtigkeit 62%
Luftdruck 1019 hPa
Sichtweite 10 km oder mehr
keine Wolken unter 1500 m und keine Kumulonimbus oder Gewitterwolken

METAR: LFBZ 240830Z AUTO 17004KT 130V210 CAVOK 12/05 Q1019 NOSIG

Zeit: 10:06 (09:06 UTC)

Prognose

Neuester Wetterbericht von vor 1 Stunde und 12 Minuten, um 07:54 UTC
Gültige Prognose vom 24 um 07 UTC bis 25 um 06 UTC
Wind 10 kt aus Süd
Sichtweite 10 km oder mehr
keine Wolken unter 1500 m und keine Kumulonimbus oder Gewitterwolken
Übergehend zu
vom 24 um 09 UTC bis 24 um 10 UTC
Wind 5 kt aus Ost

TAF: LFBZ 240754Z 2407/2506 17010KT CAVOK BECMG 2409/2410 09005KT

Wetterbeobachtungen und Prognosen von mehr als 4000 Flughäfen (METAR und TAF Bericht).

Die verfügbaren Stationen werden durch gelbe und rote Markierungen auf der Karte dargestellt.

Führen Sie die Maus auf sie, um den Namen der Station zu sehen.

Darauf klicken, um die Beobachtung von Wetterbeobachtungen und Prognosen zu sehen.

Um die Karte zu ändern : klicken Sie auf den grünen Tasten mit einem schwarzen Kreuz Zum Vergrößern, auf den grünen Button mit einem Gedankenstrich zu verkleinern, oder auf die grünen Pfeile für benachbarte Karten.


METAR-TAF: